ストックホルム/アーランダ の空港の天気 - METARとTAF

ストックホルム・アーランダ空港 ( ESSA / ARN ) - スウェーデン ストックホルム
飛行場実況気象(Metar)
観測時間05/25 12:20 CEST (05/25 10:20 UTC)
風向・風速北西 4m/s
視程10km以上
天気現象
少しの雲 雲底高度 1400m
気温17℃
湿度42%
気圧1013hPa
METARESSA 251020Z 31008KT 270V330 9999 FEW046 17/04 Q1013 NOSIG
過去の天気等 Google飛行場航空写真 Wunderground天気予報

過去48時間のMETAR

飛行場予報(TAF)
発表時間: 5/25 07:30 CEST (5/25 05:30 UTC)
予報対象時間: 25日8時 CEST ~ 26日8時 CEST
風向・風速北 5m/s
視程10km以上
なし
TAF ESSA 250530Z 2506/2606 36010KT CAVOK